Time;durP1;ratioP1;P1;durP2;ratioP2;P2;SDS_P1;SDS_P2;PMS_P1;PMS_P2;Temp;Humidity;BMP_temperature;BMP_pressure;BME280_temperature;BME280_humidity;BME280_pressure;Samples;Min_cycle;Max_cycle;Signal;HPM_P1;HPM_P2
2021/12/20 00:00:48;;;;;;;9.70;4.83;;;;;;;;;;5012223;28;20185;-52
2021/12/20 00:03:14;;;;;;;7.07;4.47;;;;;;;;;;5012274;28;20439;-52
2021/12/20 00:05:41;;;;;;;4.00;3.70;;;;;;;;;;5011456;28;20212;-52
2021/12/20 00:08:07;;;;;;;15.00;4.60;;;;;;;;;;5012103;28;20463;-52
2021/12/20 00:10:34;;;;;;;9.60;4.07;;;;;;;;;;5012086;28;20777;-52
2021/12/20 00:13:02;;;;;;;5.17;3.90;;;;;;;;;;5012148;28;20403;-52
2021/12/20 00:15:28;;;;;;;10.30;4.70;;;;;;;;;;5011292;28;20430;-52
2021/12/20 00:17:54;;;;;;;8.63;3.70;;;;;;;;;;5012217;28;20200;-52
2021/12/20 00:20:21;;;;;;;15.67;3.90;;;;;;;;;;5012075;28;20400;-52
2021/12/20 00:22:48;;;;;;;8.55;3.88;;;;;;;;;;5011993;28;20896;-52
2021/12/20 00:25:15;;;;;;;10.73;3.90;;;;;;;;;;5011467;28;20187;-52
2021/12/20 00:27:40;;;;;;;5.37;3.43;;;;;;;;;;5011747;28;20205;-52
2021/12/20 00:30:10;;;;;;;10.17;4.10;;;;;;;;;;5014239;28;20418;-51
2021/12/20 00:32:36;;;;;;;8.83;3.97;;;;;;;;;;5016117;28;20461;-52
2021/12/20 00:35:03;;;;;;;15.73;4.17;;;;;;;;;;5015309;28;20392;-51
2021/12/20 00:40:23;;;;;;;8.57;4.03;;;;;;;;;;5016280;28;20674;-52
2021/12/20 00:42:59;;;;;;;11.40;3.90;;;;;;;;;;5015897;28;20659;-52
2021/12/20 00:45:26;;;;;;;10.13;3.90;;;;;;;;;;5015397;28;20497;-52
2021/12/20 00:47:52;;;;;;;6.77;4.03;;;;;;;;;;5015587;28;20460;-52
2021/12/20 00:50:19;;;;;;;13.50;4.40;;;;;;;;;;5015870;28;20461;-52
2021/12/20 00:52:46;;;;;;;9.13;4.03;;;;;;;;;;5015686;28;20401;-52
2021/12/20 00:55:15;;;;;;;14.63;4.00;;;;;;;;;;5014862;28;20406;-52
2021/12/20 00:57:41;;;;;;;4.97;3.97;;;;;;;;;;5015537;28;20412;-51
2021/12/20 01:00:08;;;;;;;16.50;4.70;;;;;;;;;;5015459;28;20173;-52
2021/12/20 01:02:34;;;;;;;4.57;3.50;;;;;;;;;;5015456;28;20416;-52
2021/12/20 01:05:01;;;;;;;10.50;3.97;;;;;;;;;;5014794;28;20173;-52
2021/12/20 01:07:28;;;;;;;9.53;4.33;;;;;;;;;;5015205;28;20891;-52
2021/12/20 01:09:57;;;;;;;5.23;3.70;;;;;;;;;;5015385;28;20400;-52
2021/12/20 01:12:27;;;;;;;5.50;3.55;;;;;;;;;;5015462;28;20401;-52
2021/12/20 01:14:58;;;;;;;8.43;3.63;;;;;;;;;;5014655;28;20171;-52
2021/12/20 01:17:24;;;;;;;10.97;3.80;;;;;;;;;;5015320;28;20275;-52
2021/12/20 01:19:51;;;;;;;10.17;4.23;;;;;;;;;;5015185;28;20413;-52
2021/12/20 01:22:17;;;;;;;14.10;3.80;;;;;;;;;;5015138;28;20539;-52
2021/12/20 01:24:44;;;;;;;6.60;3.70;;;;;;;;;;5014595;28;20404;-51
2021/12/20 01:27:10;;;;;;;7.07;4.05;;;;;;;;;;5014825;28;20506;-51
2021/12/20 01:29:39;;;;;;;18.97;4.27;;;;;;;;;;5014862;28;20267;-52
2021/12/20 01:32:05;;;;;;;6.93;3.93;;;;;;;;;;5014924;28;20428;-52
2021/12/20 01:34:31;;;;;;;13.60;4.60;;;;;;;;;;5014404;28;20396;-51
2021/12/20 01:36:57;;;;;;;8.40;3.40;;;;;;;;;;5014717;28;20431;-52
2021/12/20 01:39:24;;;;;;;17.73;4.97;;;;;;;;;;5014832;28;20486;-52
2021/12/20 01:41:53;;;;;;;14.02;3.60;;;;;;;;;;5014638;28;20407;-51
2021/12/20 01:44:21;;;;;;;21.17;4.20;;;;;;;;;;5014839;28;20700;-51
2021/12/20 01:46:47;;;;;;;10.20;3.63;;;;;;;;;;5013853;28;20200;-52
2021/12/20 01:49:15;;;;;;;12.43;4.47;;;;;;;;;;5014834;28;20254;-52
2021/12/20 01:51:51;;;;;;;6.85;3.35;;;;;;;;;;5014670;28;20169;-51
2021/12/20 01:54:17;;;;;;;12.13;3.50;;;;;;;;;;5014589;28;20161;-52
2021/12/20 01:56:45;;;;;;;11.40;3.45;;;;;;;;;;5013753;28;20437;-52
2021/12/20 01:59:13;;;;;;;5.53;3.17;;;;;;;;;;5014481;28;20161;-52
2021/12/20 02:01:40;;;;;;;12.48;3.20;;;;;;;;;;5013686;28;20634;-53
2021/12/20 02:04:08;;;;;;;15.93;3.88;;;;;;;;;;5013902;28;20176;-52
2021/12/20 02:06:40;;;;;;;8.03;3.83;;;;;;;;;;5013022;28;20230;-52
2021/12/20 02:09:08;;;;;;;11.00;3.70;;;;;;;;;;5013837;28;20396;-52
2021/12/20 02:11:34;;;;;;;21.00;4.28;;;;;;;;;;5014132;28;20486;-52
2021/12/20 02:14:00;;;;;;;21.98;4.35;;;;;;;;;;5014136;28;20164;-52
2021/12/20 02:16:26;;;;;;;21.60;4.33;;;;;;;;;;5013257;28;20233;-52
2021/12/20 02:18:52;;;;;;;11.07;3.77;;;;;;;;;;5014042;28;20404;-52
2021/12/20 02:21:18;;;;;;;16.70;3.45;;;;;;;;;;5013953;28;20403;-52
2021/12/20 02:23:52;;;;;;;11.50;3.30;;;;;;;;;;5013961;28;20175;-53
2021/12/20 02:26:19;;;;;;;14.30;3.13;;;;;;;;;;5013101;28;20546;-52
2021/12/20 02:28:48;;;;;;;22.33;3.57;;;;;;;;;;5013542;28;20238;-52
2021/12/20 02:39:17;;;;;;;12.43;3.30;;;;;;;;;;5013725;28;20230;-52
2021/12/20 02:41:44;;;;;;;22.98;4.93;;;;;;;;;;5013644;28;20166;-52
2021/12/20 02:44:18;;;;;;;10.27;2.50;;;;;;;;;;5013464;28;20169;-52
2021/12/20 02:46:52;;;;;;;15.27;4.10;;;;;;;;;;5012903;28;20829;-53
2021/12/20 02:49:19;;;;;;;8.50;2.72;;;;;;;;;;5013577;28;20303;-53
2021/12/20 02:51:46;;;;;;;11.75;3.55;;;;;;;;;;5012850;28;20165;-52
2021/12/20 02:54:14;;;;;;;10.15;3.40;;;;;;;;;;5013350;28;20181;-52
2021/12/20 02:56:42;;;;;;;10.45;3.35;;;;;;;;;;5012469;28;20664;-52
2021/12/20 02:59:08;;;;;;;12.70;3.05;;;;;;;;;;5013347;28;20169;-51
2021/12/20 03:01:36;;;;;;;15.20;3.30;;;;;;;;;;5013244;28;20175;-52
2021/12/20 03:04:02;;;;;;;20.85;3.70;;;;;;;;;;5013187;28;20203;-52
2021/12/20 03:06:37;;;;;;;24.52;4.43;;;;;;;;;;5012435;28;20759;-51
2021/12/20 03:09:05;;;;;;;13.85;3.55;;;;;;;;;;5013065;28;20172;-52
2021/12/20 03:11:35;;;;;;;11.13;2.67;;;;;;;;;;5013060;28;20161;-52
2021/12/20 03:17:06;;;;;;;10.02;3.65;;;;;;;;;;4933063;29;20705;-52
2021/12/20 03:19:32;;;;;;;13.20;3.78;;;;;;;;;;4933202;29;20640;-52
2021/12/20 03:22:00;;;;;;;20.85;3.40;;;;;;;;;;4970846;28;20188;-52
2021/12/20 03:24:27;;;;;;;7.90;3.03;;;;;;;;;;5012809;28;20173;-52
2021/12/20 03:26:53;;;;;;;9.25;2.50;;;;;;;;;;5012209;28;20204;-52
2021/12/20 03:29:19;;;;;;;13.00;3.28;;;;;;;;;;5012766;28;20184;-51
2021/12/20 03:31:45;;;;;;;18.20;3.60;;;;;;;;;;5012684;28;20164;-52
2021/12/20 03:34:11;;;;;;;8.55;2.92;;;;;;;;;;5012633;28;20404;-52
2021/12/20 03:36:38;;;;;;;20.38;3.85;;;;;;;;;;5011928;28;20196;-51
2021/12/20 03:39:04;;;;;;;14.45;3.40;;;;;;;;;;5012576;28;20206;-52
2021/12/20 03:41:30;;;;;;;19.52;3.17;;;;;;;;;;5012589;28;20571;-52
2021/12/20 03:43:56;;;;;;;14.35;3.80;;;;;;;;;;5012766;28;20619;-52
2021/12/20 03:46:24;;;;;;;12.55;3.58;;;;;;;;;;5011729;28;20191;-52
2021/12/20 03:48:50;;;;;;;12.18;3.22;;;;;;;;;;5012303;28;20599;-52
2021/12/20 03:51:16;;;;;;;6.60;2.70;;;;;;;;;;5012490;28;20195;-53
2021/12/20 03:53:42;;;;;;;6.68;2.78;;;;;;;;;;5012382;28;20544;-52
2021/12/20 03:56:08;;;;;;;11.80;3.33;;;;;;;;;;5011595;28;20192;-52
2021/12/20 03:58:35;;;;;;;13.20;3.10;;;;;;;;;;5012325;28;20400;-52
2021/12/20 04:01:10;;;;;;;11.60;3.35;;;;;;;;;;5012437;28;20714;-52
2021/12/20 04:03:36;;;;;;;11.52;3.40;;;;;;;;;;5011558;28;20590;-52
2021/12/20 04:06:08;;;;;;;18.85;3.97;;;;;;;;;;5011236;28;20287;-51
2021/12/20 04:08:34;;;;;;;12.70;3.22;;;;;;;;;;5012119;28;20207;-52
2021/12/20 04:11:00;;;;;;;18.15;2.40;;;;;;;;;;5012141;28;20164;-51
2021/12/20 04:13:27;;;;;;;20.30;3.30;;;;;;;;;;5012180;28;20176;-52
2021/12/20 04:15:53;;;;;;;8.48;2.63;;;;;;;;;;5011208;28;20199;-52
2021/12/20 04:18:20;;;;;;;10.50;2.83;;;;;;;;;;5012148;28;20587;-52
2021/12/20 04:20:46;;;;;;;11.32;3.45;;;;;;;;;;5012023;28;20172;-52
2021/12/20 04:23:12;;;;;;;8.43;2.73;;;;;;;;;;5012314;28;20179;-51
2021/12/20 04:25:39;;;;;;;22.58;3.28;;;;;;;;;;5011201;28;20919;-52
2021/12/20 04:28:05;;;;;;;22.20;4.43;;;;;;;;;;5011716;28;20287;-51
2021/12/20 04:30:34;;;;;;;20.80;3.78;;;;;;;;;;5011820;28;20875;-51
2021/12/20 04:33:00;;;;;;;9.83;3.50;;;;;;;;;;5011933;28;20164;-52
2021/12/20 04:35:26;;;;;;;21.40;4.15;;;;;;;;;;5011144;28;20415;-51
2021/12/20 04:37:53;;;;;;;13.68;3.03;;;;;;;;;;5011833;28;20204;-51
2021/12/20 04:40:21;;;;;;;16.67;3.35;;;;;;;;;;5011942;28;20176;-52
2021/12/20 04:42:48;;;;;;;9.80;3.40;;;;;;;;;;5011874;28;20255;-52
2021/12/20 04:45:14;;;;;;;18.95;4.47;;;;;;;;;;5011094;28;20648;-52
2021/12/20 04:47:40;;;;;;;23.47;4.60;;;;;;;;;;5011711;28;20227;-52
2021/12/20 04:50:10;;;;;;;16.37;4.40;;;;;;;;;;5011754;28;20822;-52
2021/12/20 04:52:37;;;;;;;12.00;4.20;;;;;;;;;;5012486;28;20837;-51
2021/12/20 04:55:03;;;;;;;5.10;3.10;;;;;;;;;;5011016;28;20407;-53
2021/12/20 04:57:29;;;;;;;11.23;3.45;;;;;;;;;;5011580;28;20442;-52
2021/12/20 04:59:55;;;;;;;12.50;3.65;;;;;;;;;;5011673;28;20200;-52
2021/12/20 05:02:21;;;;;;;8.60;3.53;;;;;;;;;;5011694;28;20649;-52
2021/12/20 05:04:47;;;;;;;15.90;3.60;;;;;;;;;;5011005;28;20403;-52
2021/12/20 05:07:13;;;;;;;16.70;3.83;;;;;;;;;;5011462;28;20463;-53
2021/12/20 05:09:41;;;;;;;17.00;3.90;;;;;;;;;;5011580;28;20894;-52
2021/12/20 05:12:12;;;;;;;13.73;3.92;;;;;;;;;;5011510;28;20400;-53
2021/12/20 05:14:42;;;;;;;14.75;3.33;;;;;;;;;;5011092;28;20163;-52
2021/12/20 05:17:09;;;;;;;17.88;3.53;;;;;;;;;;5015132;28;20700;-52
2021/12/20 05:19:35;;;;;;;12.48;3.80;;;;;;;;;;5015816;28;20570;-52
2021/12/20 05:22:01;;;;;;;16.37;3.90;;;;;;;;;;5015127;28;20177;-51
2021/12/20 05:24:27;;;;;;;16.00;3.85;;;;;;;;;;5014715;28;20411;-51
2021/12/20 05:26:53;;;;;;;15.80;3.43;;;;;;;;;;5014945;28;20211;-52
2021/12/20 05:29:19;;;;;;;24.38;4.60;;;;;;;;;;5015068;28;20903;-51
2021/12/20 05:31:45;;;;;;;8.02;3.63;;;;;;;;;;5015049;28;20609;-52
2021/12/20 05:34:12;;;;;;;22.95;4.60;;;;;;;;;;5015096;28;20171;-51
2021/12/20 05:36:38;;;;;;;11.57;3.33;;;;;;;;;;5014476;28;20184;-52
2021/12/20 05:39:04;;;;;;;23.17;4.20;;;;;;;;;;5014970;28;20230;-51
2021/12/20 05:41:30;;;;;;;18.95;4.32;;;;;;;;;;5015039;28;20400;-52
2021/12/20 05:43:56;;;;;;;14.95;3.50;;;;;;;;;;5015004;28;20276;-52
2021/12/20 05:46:23;;;;;;;26.97;4.53;;;;;;;;;;5014003;28;20294;-51
2021/12/20 05:48:49;;;;;;;23.33;4.03;;;;;;;;;;5014853;28;20462;-52
2021/12/20 05:51:15;;;;;;;14.20;3.70;;;;;;;;;;5014881;28;20549;-52
2021/12/20 05:53:41;;;;;;;17.27;3.17;;;;;;;;;;5014591;28;20399;-52
2021/12/20 05:56:07;;;;;;;25.23;4.40;;;;;;;;;;5013865;28;20919;-52
2021/12/20 05:58:33;;;;;;;20.20;4.23;;;;;;;;;;5014705;28;20407;-52
2021/12/20 06:00:59;;;;;;;16.63;3.57;;;;;;;;;;5014535;28;20439;-52
2021/12/20 06:03:25;;;;;;;14.32;3.70;;;;;;;;;;5014621;28;20439;-51
2021/12/20 06:05:51;;;;;;;15.73;3.80;;;;;;;;;;5013794;28;20224;-51
2021/12/20 06:08:18;;;;;;;23.20;4.43;;;;;;;;;;5014486;28;20454;-51
2021/12/20 06:10:44;;;;;;;15.98;4.07;;;;;;;;;;5014872;28;20482;-52
2021/12/20 06:13:11;;;;;;;13.53;3.87;;;;;;;;;;5014535;28;20207;-52
2021/12/20 06:15:37;;;;;;;19.70;4.53;;;;;;;;;;5014073;28;20423;-51
2021/12/20 06:18:03;;;;;;;20.58;4.30;;;;;;;;;;5014759;28;20180;-51
2021/12/20 06:20:29;;;;;;;15.90;3.90;;;;;;;;;;5014593;28;20172;-51
2021/12/20 06:22:55;;;;;;;19.57;4.97;;;;;;;;;;5014484;28;20211;-51
2021/12/20 06:25:22;;;;;;;24.03;5.03;;;;;;;;;;5013760;28;20395;-51
2021/12/20 06:27:49;;;;;;;16.83;4.68;;;;;;;;;;5013442;28;20463;-51
2021/12/20 06:30:15;;;;;;;11.27;3.38;;;;;;;;;;5014373;28;20172;-50
2021/12/20 06:32:43;;;;;;;17.80;5.10;;;;;;;;;;5014597;28;20165;-51
2021/12/20 06:35:10;;;;;;;12.35;3.92;;;;;;;;;;5013925;28;20169;-51
2021/12/20 06:37:36;;;;;;;20.48;4.70;;;;;;;;;;5014581;28;20238;-51
2021/12/20 06:40:05;;;;;;;14.65;4.78;;;;;;;;;;5015164;28;20211;-52
2021/12/20 06:42:31;;;;;;;22.02;4.75;;;;;;;;;;5014584;28;20172;-51
2021/12/20 06:44:58;;;;;;;21.42;4.55;;;;;;;;;;5013770;28;20175;-51
2021/12/20 06:47:24;;;;;;;22.30;4.38;;;;;;;;;;5014100;28;20270;-51
2021/12/20 06:49:50;;;;;;;18.02;5.30;;;;;;;;;;5014022;28;20633;-51
2021/12/20 06:52:16;;;;;;;19.97;5.07;;;;;;;;;;5013868;28;20191;-51
2021/12/20 06:54:42;;;;;;;26.52;3.97;;;;;;;;;;5013395;28;20429;-51
2021/12/20 06:57:08;;;;;;;16.57;3.80;;;;;;;;;;5013938;28;20194;-51
2021/12/20 06:59:34;;;;;;;19.53;4.77;;;;;;;;;;5014115;28;20399;-51
2021/12/20 07:02:02;;;;;;;22.47;4.80;;;;;;;;;;5014036;28;20821;-51
2021/12/20 07:04:28;;;;;;;13.95;4.75;;;;;;;;;;5013551;28;20407;-50
2021/12/20 07:06:55;;;;;;;20.73;4.77;;;;;;;;;;5013367;28;20189;-51
2021/12/20 07:09:21;;;;;;;39.50;5.90;;;;;;;;;;5014066;28;20391;-50
2021/12/20 07:11:47;;;;;;;13.95;4.25;;;;;;;;;;5013712;28;20175;-52
2021/12/20 07:14:14;;;;;;;21.37;4.13;;;;;;;;;;5014009;28;20172;-50
2021/12/20 07:16:40;;;;;;;24.70;4.82;;;;;;;;;;5012679;28;20423;-51
2021/12/20 07:19:06;;;;;;;15.82;5.22;;;;;;;;;;5013502;28;20175;-50
2021/12/20 07:21:32;;;;;;;22.07;5.67;;;;;;;;;;5013310;28;20169;-51
2021/12/20 07:23:58;;;;;;;13.40;4.90;;;;;;;;;;5013171;28;20865;-51
2021/12/20 07:26:24;;;;;;;18.10;4.97;;;;;;;;;;5012188;28;20521;-50
2021/12/20 07:31:54;;;;;;;19.95;4.22;;;;;;;;;;5013909;28;20543;-51
2021/12/20 07:34:20;;;;;;;18.02;4.13;;;;;;;;;;5013644;28;20172;-53
2021/12/20 07:36:46;;;;;;;14.75;5.05;;;;;;;;;;5012819;28;20191;-51
2021/12/20 07:39:12;;;;;;;22.23;6.00;;;;;;;;;;5012933;28;20168;-52
2021/12/20 07:41:38;;;;;;;15.98;4.53;;;;;;;;;;5013638;28;20396;-51
2021/12/20 07:44:04;;;;;;;52.07;28.13;;;;;;;;;;5013713;28;20254;-51
2021/12/20 07:46:30;;;;;;;45.00;21.70;;;;;;;;;;5012450;28;20519;-52
2021/12/20 07:48:57;;;;;;;41.53;22.25;;;;;;;;;;5013245;28;20575;-52
2021/12/20 07:51:23;;;;;;;37.70;17.05;;;;;;;;;;5013567;28;20167;-51
2021/12/20 07:53:49;;;;;;;26.45;9.30;;;;;;;;;;5013416;28;20227;-53
2021/12/20 07:56:17;;;;;;;17.70;8.47;;;;;;;;;;5012393;28;20234;-52
2021/12/20 07:58:43;;;;;;;19.50;8.25;;;;;;;;;;5013100;28;20461;-51
2021/12/20 08:01:10;;;;;;;26.03;7.73;;;;;;;;;;5013179;28;20632;-51
2021/12/20 08:03:38;;;;;;;22.85;11.15;;;;;;;;;;5013067;28;20431;-51
2021/12/20 08:06:04;;;;;;;13.10;5.53;;;;;;;;;;5012329;28;20199;-52
2021/12/20 08:08:30;;;;;;;10.80;5.55;;;;;;;;;;5013274;28;20200;-52
2021/12/20 08:10:56;;;;;;;21.40;6.40;;;;;;;;;;5012871;28;20168;-52
2021/12/20 08:13:22;;;;;;;24.33;7.37;;;;;;;;;;5012454;28;20202;-52
2021/12/20 08:15:48;;;;;;;19.87;7.00;;;;;;;;;;5011616;28;20411;-51
2021/12/20 08:18:14;;;;;;;30.23;6.30;;;;;;;;;;5012447;28;20485;-50
2021/12/20 08:20:40;;;;;;;23.45;5.72;;;;;;;;;;5012337;28;20461;-52
2021/12/20 08:23:06;;;;;;;16.90;4.95;;;;;;;;;;5012446;28;20207;-52
2021/12/20 08:25:32;;;;;;;12.75;6.38;;;;;;;;;;5012090;28;20200;-51
2021/12/20 08:27:59;;;;;;;17.48;5.68;;;;;;;;;;5012061;28;20287;-51
2021/12/20 08:30:25;;;;;;;16.77;4.32;;;;;;;;;;5012420;28;20172;-52
2021/12/20 08:32:51;;;;;;;20.73;5.22;;;;;;;;;;5012197;28;20176;-51
2021/12/20 08:35:17;;;;;;;20.10;5.40;;;;;;;;;;5011551;28;20175;-51
2021/12/20 08:37:43;;;;;;;16.33;5.27;;;;;;;;;;5012183;28;20180;-51
2021/12/20 08:40:11;;;;;;;12.43;5.05;;;;;;;;;;5012251;28;20498;-50
2021/12/20 08:42:37;;;;;;;33.20;5.60;;;;;;;;;;5012067;28;20644;-51
2021/12/20 08:45:04;;;;;;;17.73;5.90;;;;;;;;;;5011388;28;20663;-52
2021/12/20 08:47:32;;;;;;;22.48;6.07;;;;;;;;;;5012076;28;20286;-52
2021/12/20 08:49:58;;;;;;;23.38;5.60;;;;;;;;;;5012254;28;20189;-51
2021/12/20 08:52:24;;;;;;;28.30;6.53;;;;;;;;;;5015485;28;20172;-51
2021/12/20 08:54:50;;;;;;;22.37;6.10;;;;;;;;;;5015071;28;20179;-52
2021/12/20 08:57:16;;;;;;;24.50;6.93;;;;;;;;;;5014492;28;20464;-52
2021/12/20 08:59:42;;;;;;;30.13;6.20;;;;;;;;;;5015307;28;20774;-52
2021/12/20 09:02:09;;;;;;;16.60;5.53;;;;;;;;;;5015585;28;20419;-53
2021/12/20 09:04:35;;;;;;;19.57;7.03;;;;;;;;;;5015465;28;20299;-52
2021/12/20 09:07:02;;;;;;;17.37;5.87;;;;;;;;;;5017327;28;20423;-52
2021/12/20 09:09:28;;;;;;;14.03;5.27;;;;;;;;;;5018497;28;20402;-52
2021/12/20 09:11:54;;;;;;;21.57;8.23;;;;;;;;;;5019760;28;20434;-53
2021/12/20 09:14:20;;;;;;;25.03;6.20;;;;;;;;;;5018888;28;20412;-53
2021/12/20 09:16:46;;;;;;;19.13;5.40;;;;;;;;;;5017784;28;20454;-53
2021/12/20 09:19:12;;;;;;;12.97;5.60;;;;;;;;;;5017936;28;20901;-53
2021/12/20 09:21:38;;;;;;;21.97;7.20;;;;;;;;;;5016654;28;20400;-52
2021/12/20 09:24:06;;;;;;;18.83;7.03;;;;;;;;;;5015559;28;20406;-53
2021/12/20 09:26:32;;;;;;;17.23;5.93;;;;;;;;;;5015289;28;20452;-54
2021/12/20 09:28:58;;;;;;;20.73;6.17;;;;;;;;;;5016199;28;20529;-53
2021/12/20 09:31:24;;;;;;;13.63;5.40;;;;;;;;;;5016166;28;20402;-53
2021/12/20 09:33:50;;;;;;;20.83;6.50;;;;;;;;;;5016063;28;20397;-53
2021/12/20 09:36:16;;;;;;;15.43;5.90;;;;;;;;;;5015515;28;20790;-54
2021/12/20 09:38:42;;;;;;;16.53;4.83;;;;;;;;;;5015990;28;20469;-53
2021/12/20 09:43:35;;;;;;;18.90;7.33;;;;;;;;;;5016397;28;20434;-53
2021/12/20 09:46:01;;;;;;;15.73;6.07;;;;;;;;;;5015177;28;20521;-53
2021/12/20 09:48:27;;;;;;;14.90;4.77;;;;;;;;;;5021458;28;20529;-53
2021/12/20 09:50:53;;;;;;;19.20;5.60;;;;;;;;;;5030832;28;20384;-54
2021/12/20 09:53:19;;;;;;;20.33;4.63;;;;;;;;;;5035163;28;20445;-54
2021/12/20 09:55:49;;;;;;;20.03;5.10;;;;;;;;;;5034316;28;20434;-53
2021/12/20 09:58:15;;;;;;;19.47;5.27;;;;;;;;;;5035541;28;20463;-53
2021/12/20 10:00:42;;;;;;;17.13;4.67;;;;;;;;;;5035477;28;20413;-53
2021/12/20 10:03:08;;;;;;;17.70;5.60;;;;;;;;;;5032804;28;20416;-53
2021/12/20 10:05:35;;;;;;;25.97;5.00;;;;;;;;;;5036828;28;20427;-52
2021/12/20 10:08:11;;;;;;;16.93;4.97;;;;;;;;;;5036784;28;20472;-52
2021/12/20 10:10:40;;;;;;;18.43;5.13;;;;;;;;;;5039084;28;20405;-53
2021/12/20 10:13:07;;;;;;;14.37;4.17;;;;;;;;;;5039361;28;20405;-53
2021/12/20 10:15:38;;;;;;;9.90;4.30;;;;;;;;;;5038021;28;20890;-53
2021/12/20 10:18:05;;;;;;;18.67;5.33;;;;;;;;;;5039059;28;20412;-53
2021/12/20 10:20:35;;;;;;;15.17;4.80;;;;;;;;;;5038710;28;20377;-52
2021/12/20 10:23:27;;;;;;;14.53;4.90;;;;;;;;;;5037142;28;20857;-53
2021/12/20 10:25:54;;;;;;;13.00;4.80;;;;;;;;;;5034204;28;20894;-53
2021/12/20 10:28:22;;;;;;;12.47;4.60;;;;;;;;;;5036680;28;20458;-52
2021/12/20 10:30:50;;;;;;;14.50;5.17;;;;;;;;;;5036774;28;20727;-53
2021/12/20 10:33:20;;;;;;;16.13;4.87;;;;;;;;;;5036298;28;20463;-53
2021/12/20 10:35:49;;;;;;;16.67;4.73;;;;;;;;;;5034020;28;20833;-53
2021/12/20 10:38:21;;;;;;;12.97;4.93;;;;;;;;;;5035877;28;20380;-53
2021/12/20 10:40:54;;;;;;;15.97;5.10;;;;;;;;;;5034873;28;20491;-54
2021/12/20 10:43:22;;;;;;;17.50;4.53;;;;;;;;;;5034341;28;20407;-54
2021/12/20 10:45:50;;;;;;;10.10;3.70;;;;;;;;;;5033242;28;21007;-54
2021/12/20 10:48:16;;;;;;;15.30;5.57;;;;;;;;;;5033649;28;20924;-53
2021/12/20 10:50:44;;;;;;;15.20;5.00;;;;;;;;;;5033747;28;20589;-53
2021/12/20 10:53:12;;;;;;;14.47;3.80;;;;;;;;;;5034567;28;20753;-51
2021/12/20 10:55:39;;;;;;;15.07;4.37;;;;;;;;;;5032254;28;20395;-52
2021/12/20 10:58:20;;;;;;;14.13;3.70;;;;;;;;;;5033038;28;20396;-51
2021/12/20 11:01:06;;;;;;;16.43;4.40;;;;;;;;;;5031859;28;20412;-50
2021/12/20 11:03:36;;;;;;;12.30;4.13;;;;;;;;;;5032756;28;20416;-52
2021/12/20 11:11:21;;;;;;;17.57;5.37;;;;;;;;;;5033299;28;20397;-51
2021/12/20 11:13:47;;;;;;;7.80;3.70;;;;;;;;;;5032321;28;20477;-50
2021/12/20 11:16:42;;;;;;;10.87;4.23;;;;;;;;;;5032045;28;20430;-52
2021/12/20 11:19:16;;;;;;;18.50;4.77;;;;;;;;;;5023924;28;20423;-53
2021/12/20 11:21:53;;;;;;;11.50;3.73;;;;;;;;;;5032722;28;20400;-51
2021/12/20 11:24:31;;;;;;;11.40;4.33;;;;;;;;;;5032681;28;20411;-50
2021/12/20 11:26:57;;;;;;;8.47;3.40;;;;;;;;;;5032121;28;20386;-52
2021/12/20 11:29:24;;;;;;;9.07;4.00;;;;;;;;;;5032592;28;20399;-50
2021/12/20 11:31:50;;;;;;;6.97;3.20;;;;;;;;;;5032470;28;20375;-51
2021/12/20 11:34:16;;;;;;;10.97;3.77;;;;;;;;;;5032491;28;20478;-51
2021/12/20 11:36:42;;;;;;;10.90;4.10;;;;;;;;;;5031710;28;20505;-50
2021/12/20 11:39:09;;;;;;;10.93;3.43;;;;;;;;;;5032404;28;20894;-51
2021/12/20 11:41:35;;;;;;;10.57;3.93;;;;;;;;;;5030948;28;20439;-52
2021/12/20 11:44:02;;;;;;;12.70;4.30;;;;;;;;;;5032270;28;20408;-50
2021/12/20 11:46:44;;;;;;;16.93;4.67;;;;;;;;;;5031365;28;20403;-51
2021/12/20 11:49:11;;;;;;;16.60;5.13;;;;;;;;;;5031795;28;20945;-51
2021/12/20 11:51:56;;;;;;;7.33;3.40;;;;;;;;;;5031689;28;20381;-52
2021/12/20 11:54:40;;;;;;;23.77;4.77;;;;;;;;;;5031933;28;20492;-50
2021/12/20 11:57:07;;;;;;;8.27;3.60;;;;;;;;;;5031892;28;20441;-53
2021/12/20 11:59:49;;;;;;;21.03;4.17;;;;;;;;;;5031342;28;20439;-51
2021/12/20 12:02:25;;;;;;;8.07;3.50;;;;;;;;;;5031055;28;20366;-50
2021/12/20 12:04:55;;;;;;;8.67;3.13;;;;;;;;;;5031333;28;20441;-51
2021/12/20 12:07:23;;;;;;;10.77;2.77;;;;;;;;;;5030311;28;20984;-51
2021/12/20 12:09:56;;;;;;;8.00;2.27;;;;;;;;;;5031991;28;20402;-50
2021/12/20 12:12:23;;;;;;;6.10;2.50;;;;;;;;;;5031876;28;20465;-52
2021/12/20 12:15:10;;;;;;;5.97;2.23;;;;;;;;;;5022694;28;20389;-50
2021/12/20 12:18:10;;;;;;;6.50;2.10;;;;;;;;;;5011909;28;20490;-51
2021/12/20 12:20:49;;;;;;;8.10;2.13;;;;;;;;;;5004283;28;20428;-52
2021/12/20 12:23:22;;;;;;;5.53;1.90;;;;;;;;;;5011830;28;20405;-51
2021/12/20 12:25:55;;;;;;;11.20;2.10;;;;;;;;;;5010389;28;20443;-51
2021/12/20 12:28:23;;;;;;;4.53;1.90;;;;;;;;;;5011682;28;20466;-51
2021/12/20 12:30:56;;;;;;;10.30;2.17;;;;;;;;;;5011806;28;20497;-53
2021/12/20 12:33:23;;;;;;;5.33;1.47;;;;;;;;;;5011847;28;20400;-50
2021/12/20 12:35:51;;;;;;;5.03;2.70;;;;;;;;;;5010588;28;20911;-50
2021/12/20 12:38:21;;;;;;;3.80;1.93;;;;;;;;;;5011952;28;20415;-50
2021/12/20 12:40:50;;;;;;;2.80;1.90;;;;;;;;;;5011819;28;20412;-50
2021/12/20 12:43:17;;;;;;;5.17;2.00;;;;;;;;;;5011709;28;20458;-50
2021/12/20 12:45:51;;;;;;;6.43;1.50;;;;;;;;;;5011401;28;20928;-50
2021/12/20 12:48:52;;;;;;;3.10;1.80;;;;;;;;;;5011604;28;20474;-49
2021/12/20 12:51:20;;;;;;;4.40;1.77;;;;;;;;;;4969977;28;20425;-50
2021/12/20 12:53:46;;;;;;;5.80;1.70;;;;;;;;;;5002877;28;20418;-53
2021/12/20 12:56:24;;;;;;;5.90;1.73;;;;;;;;;;5009587;28;20415;-53
2021/12/20 12:59:09;;;;;;;4.17;1.90;;;;;;;;;;5011099;28;20430;-51
2021/12/20 13:01:38;;;;;;;5.83;2.03;;;;;;;;;;5011639;28;20402;-52
2021/12/20 13:04:04;;;;;;;3.17;1.87;;;;;;;;;;5011634;28;20969;-50
2021/12/20 13:06:30;;;;;;;4.70;2.07;;;;;;;;;;5010866;28;20514;-50
2021/12/20 13:08:59;;;;;;;4.87;1.90;;;;;;;;;;5011474;28;20861;-51
2021/12/20 13:11:25;;;;;;;4.70;1.50;;;;;;;;;;5011598;28;20401;-50
2021/12/20 13:14:06;;;;;;;2.50;2.30;;;;;;;;;;5011605;28;20411;-50
2021/12/20 13:16:32;;;;;;;3.13;1.70;;;;;;;;;;5010837;28;20506;-53
2021/12/20 13:18:59;;;;;;;3.40;1.63;;;;;;;;;;5011525;28;20445;-52
2021/12/20 13:21:37;;;;;;;2.63;1.40;;;;;;;;;;5011959;28;20403;-51
2021/12/20 13:24:13;;;;;;;6.37;1.97;;;;;;;;;;5010145;28;20407;-53
2021/12/20 13:26:39;;;;;;;2.40;1.60;;;;;;;;;;5010612;28;20506;-51
2021/12/20 13:29:05;;;;;;;6.63;1.83;;;;;;;;;;5011011;28;20690;-53
2021/12/20 13:31:32;;;;;;;4.07;2.30;;;;;;;;;;5011288;28;20397;-51
2021/12/20 13:34:00;;;;;;;3.00;1.30;;;;;;;;;;5011327;28;20415;-52
2021/12/20 13:36:34;;;;;;;3.93;1.80;;;;;;;;;;5011371;28;20513;-50
2021/12/20 13:39:02;;;;;;;3.50;1.20;;;;;;;;;;5014853;28;20464;-50
2021/12/20 13:41:30;;;;;;;2.30;1.40;;;;;;;;;;5014720;28;20407;-52
2021/12/20 13:44:00;;;;;;;3.63;1.37;;;;;;;;;;5014647;28;20449;-52
2021/12/20 13:46:40;;;;;;;1.60;1.50;;;;;;;;;;5013778;28;20494;-50
2021/12/20 13:49:06;;;;;;;3.33;1.60;;;;;;;;;;5014712;28;20529;-52
2021/12/20 13:51:32;;;;;;;2.50;1.70;;;;;;;;;;5014553;28;20900;-51
2021/12/20 13:53:58;;;;;;;3.00;1.50;;;;;;;;;;5014014;28;20452;-52
2021/12/20 13:56:26;;;;;;;3.63;1.97;;;;;;;;;;5013406;28;20920;-52
2021/12/20 13:58:52;;;;;;;5.00;1.50;;;;;;;;;;5014513;28;20909;-51
2021/12/20 14:01:19;;;;;;;2.93;1.50;;;;;;;;;;5014373;28;20778;-50
2021/12/20 14:03:45;;;;;;;6.00;1.60;;;;;;;;;;5014411;28;20749;-51
2021/12/20 14:06:31;;;;;;;3.00;1.30;;;;;;;;;;5013625;28;20440;-51
2021/12/20 14:09:09;;;;;;;4.40;1.23;;;;;;;;;;5014042;28;20464;-53
2021/12/20 14:11:35;;;;;;;5.33;1.73;;;;;;;;;;5014150;28;20406;-50
2021/12/20 14:14:11;;;;;;;2.20;1.40;;;;;;;;;;5013397;28;20402;-50
2021/12/20 14:17:09;;;;;;;5.03;1.77;;;;;;;;;;5013292;28;20439;-51
2021/12/20 14:19:54;;;;;;;2.07;1.20;;;;;;;;;;4990499;28;20428;-51
2021/12/20 14:22:20;;;;;;;4.53;1.97;;;;;;;;;;5013892;28;20516;-50
2021/12/20 14:24:46;;;;;;;2.53;1.37;;;;;;;;;;5011736;28;20849;-51
2021/12/20 14:27:14;;;;;;;2.40;1.47;;;;;;;;;;5013598;28;20419;-51
2021/12/20 14:29:40;;;;;;;1.93;1.27;;;;;;;;;;5013763;28;20454;-50
2021/12/20 14:32:07;;;;;;;3.17;1.43;;;;;;;;;;5013766;28;20869;-51
2021/12/20 14:34:38;;;;;;;1.87;1.67;;;;;;;;;;5012944;28;20467;-51
2021/12/20 14:37:08;;;;;;;5.90;1.87;;;;;;;;;;5013694;28;20423;-50
2021/12/20 14:39:42;;;;;;;2.70;1.43;;;;;;;;;;5013570;28;20401;-50
2021/12/20 14:42:08;;;;;;;4.53;2.00;;;;;;;;;;5013747;28;20907;-50
2021/12/20 14:44:44;;;;;;;1.53;1.33;;;;;;;;;;5012889;28;20490;-50
2021/12/20 14:47:14;;;;;;;2.90;1.37;;;;;;;;;;5013106;28;20978;-50
2021/12/20 14:49:54;;;;;;;2.50;1.63;;;;;;;;;;5012975;28;20410;-52
2021/12/20 14:52:22;;;;;;;2.00;1.57;;;;;;;;;;5013513;28;20394;-49
2021/12/20 14:54:50;;;;;;;1.97;1.63;;;;;;;;;;5012678;28;20402;-50
2021/12/20 14:57:20;;;;;;;2.80;1.60;;;;;;;;;;5013163;28;20429;-50
2021/12/20 14:59:47;;;;;;;2.20;1.80;;;;;;;;;;5013370;28;20490;-50
2021/12/20 15:02:14;;;;;;;3.80;1.87;;;;;;;;;;5013370;28;20846;-50
2021/12/20 15:04:41;;;;;;;2.60;1.63;;;;;;;;;;5012644;28;20406;-51